METAR Formatted Surface Weather Observation
Issued by NWS

Home | Current Version | Previous Version | Text Only | Print | Product List | Glossary On
Versions: 1 2 3
635
SAUS41 KPHI 271824
MTRNEL
METAR KNEL 271800Z AUTO 25008KT 10SM CLR 26/11 A2995 RMK AO2 SLPNO
6//// T02610111 $



USA.gov is the U.S. government's official web portal to all federal, state and local government web resources and services.